Cuba, Alabama
Current Conditions -  °F | °C
As of 2:56 PM on Monday 22 Dec 2014 (Local Time) from KNMM Reporting Station
Overcast Overcast  
Wind Chill: 58°   Ceiling: 400
Heat Index: 58°   Visibility: 10mi
Dew Point: 56°   Wind: 5mph
Humidity: 93%   Direction: 140°SE
Pressure: 29.74"   Gusts: NA
Location:  32.43°N, 88.38°W
Report Text: KNMM 222056Z 14004KT 10SM OVC004 14/13 A2974 RMK AO2 SLP079 60000 T01440133 56024
Loading
Personal Weather Stations






























Interactive Weather Map New forecast layout! Learn more

10-Day Weather Forecast

Advertisements
Track Severe Weather on mobile